Time;durP1;ratioP1;P1;durP2;ratioP2;P2;SDS_P1;SDS_P2;PMS_P1;PMS_P2;Temp;Humidity;BMP_temperature;BMP_pressure;BME280_temperature;BME280_humidity;BME280_pressure;Samples;Min_cycle;Max_cycle;Signal;HPM_P1;HPM_P2
2021/01/03 00:01:51;;;;;;;70.07;28.95;;;2.90;99.90;;;;;;5048384;28;20028;-57
2021/01/03 00:04:17;;;;;;;79.78;29.55;;;2.90;99.90;;;;;;5044150;28;20051;-57
2021/01/03 00:06:43;;;;;;;78.40;30.40;;;3.00;99.90;;;;;;5042255;28;20052;-57
2021/01/03 00:09:10;;;;;;;77.80;30.05;;;2.90;99.90;;;;;;5037895;28;20733;-57
2021/01/03 00:11:39;;;;;;;81.43;30.13;;;2.90;99.90;;;;;;5044541;28;20541;-57
2021/01/03 00:14:06;;;;;;;80.72;29.83;;;2.80;99.90;;;;;;5046209;28;20037;-60
2021/01/03 00:16:31;;;;;;;75.88;29.83;;;2.80;99.90;;;;;;5038209;28;20088;-60
2021/01/03 00:18:57;;;;;;;73.80;28.58;;;2.70;99.90;;;;;;5042791;28;20299;-60
2021/01/03 00:21:23;;;;;;;75.03;29.05;;;2.80;99.90;;;;;;5036719;28;20541;-57
2021/01/03 00:23:49;;;;;;;67.45;28.15;;;2.90;99.90;;;;;;5036392;28;20965;-57
2021/01/03 00:26:15;;;;;;;72.22;28.73;;;2.90;99.90;;;;;;5044318;28;20031;-58
2021/01/03 00:28:41;;;;;;;80.55;29.65;;;2.80;99.90;;;;;;5043247;28;20104;-57
2021/01/03 00:31:06;;;;;;;71.10;28.33;;;2.80;99.90;;;;;;5044102;28;20029;-57
2021/01/03 00:33:32;;;;;;;71.80;29.02;;;2.90;99.90;;;;;;5045597;28;20556;-57
2021/01/03 00:35:57;;;;;;;68.80;27.50;;;2.90;99.90;;;;;;5045648;28;20455;-57
2021/01/03 00:38:23;;;;;;;72.82;28.38;;;2.90;99.90;;;;;;5041363;28;20047;-58
2021/01/03 00:40:49;;;;;;;75.35;28.85;;;2.90;99.90;;;;;;5042435;28;20047;-57
2021/01/03 00:43:15;;;;;;;72.47;29.33;;;2.80;99.90;;;;;;5041654;28;20025;-57
2021/01/03 00:45:42;;;;;;;70.30;29.35;;;2.70;99.90;;;;;;5039849;28;20025;-60
2021/01/03 00:48:09;;;;;;;81.03;28.05;;;2.80;99.90;;;;;;5042736;28;20036;-60
2021/01/03 00:50:35;;;;;;;78.82;29.55;;;2.90;99.90;;;;;;5044332;28;20040;-60
2021/01/03 00:53:01;;;;;;;75.15;28.65;;;2.80;99.90;;;;;;5036847;28;20040;-60
2021/01/03 00:55:27;;;;;;;76.78;31.02;;;2.70;99.90;;;;;;5044186;28;20064;-60
2021/01/03 00:57:52;;;;;;;70.35;27.38;;;2.70;99.90;;;;;;5046921;28;20025;-60
2021/01/03 01:00:25;;;;;;;64.63;26.88;;;2.80;99.90;;;;;;5044151;28;20033;-58
2021/01/03 01:02:51;;;;;;;69.68;26.77;;;2.80;99.90;;;;;;5036617;28;20025;-60
2021/01/03 01:05:18;;;;;;;67.97;27.00;;;2.80;99.90;;;;;;5042763;28;20025;-58
2021/01/03 01:07:43;;;;;;;71.47;27.80;;;2.80;99.90;;;;;;5056198;28;20055;-58
2021/01/03 01:10:13;;;;;;;68.65;26.77;;;2.90;99.90;;;;;;5044886;28;20079;-61
2021/01/03 01:12:39;;;;;;;66.47;25.98;;;3.00;99.90;;;;;;5033970;28;20045;-60
2021/01/03 01:15:17;;;;;;;59.17;23.80;;;2.90;99.90;;;;;;5025752;28;20037;-60
2021/01/03 01:17:45;;;;;;;62.05;23.77;;;2.90;99.90;;;;;;5038438;28;20065;-60
2021/01/03 01:20:11;;;;;;;58.70;22.88;;;2.80;99.90;;;;;;5041429;28;20036;-60
2021/01/03 01:22:37;;;;;;;60.60;24.60;;;2.90;99.90;;;;;;5038098;28;20063;-58
2021/01/03 01:25:04;;;;;;;57.28;25.05;;;2.90;99.90;;;;;;5035953;28;20136;-58
2021/01/03 01:27:30;;;;;;;56.80;22.92;;;2.90;99.90;;;;;;5041638;28;20637;-60
2021/01/03 01:29:55;;;;;;;56.85;22.80;;;2.90;99.90;;;;;;5041562;28;20740;-60
2021/01/03 01:32:21;;;;;;;57.67;24.98;;;2.90;99.90;;;;;;5043685;28;20036;-58
2021/01/03 01:34:46;;;;;;;53.70;22.20;;;3.00;99.90;;;;;;5048010;28;20150;-60
2021/01/03 01:37:12;;;;;;;52.08;20.73;;;3.10;99.90;;;;;;5043413;28;20040;-60
2021/01/03 01:39:38;;;;;;;55.53;21.17;;;2.90;99.90;;;;;;5045284;28;20025;-60
2021/01/03 01:42:03;;;;;;;54.00;22.25;;;2.90;99.90;;;;;;5037599;28;20025;-60
2021/01/03 01:44:29;;;;;;;49.97;21.30;;;2.80;99.90;;;;;;5043176;28;20415;-60
2021/01/03 01:47:13;;;;;;;52.67;20.85;;;2.80;99.90;;;;;;5045026;28;20043;-58
2021/01/03 01:49:42;;;;;;;52.28;20.80;;;2.80;99.90;;;;;;5047015;28;20032;-60
2021/01/03 01:52:11;;;;;;;55.17;23.08;;;2.70;99.90;;;;;;5047559;28;20052;-60
2021/01/03 01:54:40;;;;;;;56.50;22.42;;;2.70;99.90;;;;;;5054146;28;20412;-60
2021/01/03 01:57:32;;;;;;;53.00;20.98;;;2.70;99.90;;;;;;5050670;28;20189;-60
2021/01/03 02:00:18;;;;;;;48.65;20.75;;;2.80;99.90;;;;;;5047543;28;20036;-60
2021/01/03 02:02:59;;;;;;;52.88;21.27;;;2.90;99.90;;;;;;5054824;28;20028;-59
2021/01/03 02:05:46;;;;;;;50.40;20.58;;;2.90;99.90;;;;;;5051213;28;20032;-59
2021/01/03 02:08:27;;;;;;;45.30;19.98;;;2.90;99.90;;;;;;5044120;28;20075;-60
2021/01/03 02:10:53;;;;;;;48.08;19.60;;;2.80;99.90;;;;;;5048055;28;20028;-59
2021/01/03 02:13:45;;;;;;;46.60;19.13;;;2.80;99.90;;;;;;5061920;28;20024;-59
2021/01/03 02:16:19;;;;;;;44.35;17.15;;;2.70;99.90;;;;;;5061344;28;20024;-59
2021/01/03 02:18:46;;;;;;;44.72;18.25;;;2.80;99.90;;;;;;5059904;28;20403;-59
2021/01/03 02:21:21;;;;;;;47.70;19.63;;;2.70;99.90;;;;;;5053086;28;20057;-59
2021/01/03 02:23:56;;;;;;;47.80;18.00;;;2.60;99.90;;;;;;5047872;28;20568;-59
2021/01/03 02:26:25;;;;;;;46.80;19.88;;;2.70;99.90;;;;;;5036423;28;20029;-59
2021/01/03 02:28:52;;;;;;;41.90;16.98;;;2.70;99.90;;;;;;5055299;28;20274;-59
2021/01/03 02:31:25;;;;;;;44.25;17.70;;;2.70;99.90;;;;;;5049438;28;20028;-57
2021/01/03 02:33:51;;;;;;;40.83;16.95;;;2.50;99.90;;;;;;5034149;28;20151;-59
2021/01/03 02:36:30;;;;;;;48.17;19.38;;;2.60;99.90;;;;;;5048065;28;20050;-59
2021/01/03 02:39:29;;;;;;;47.25;19.17;;;2.50;99.90;;;;;;5052214;28;20082;-59
2021/01/03 02:41:57;;;;;;;47.00;19.50;;;2.40;99.90;;;;;;5047014;28;20098;-59
2021/01/03 02:44:23;;;;;;;44.92;18.50;;;2.40;99.90;;;;;;5056052;28;20052;-59
2021/01/03 02:46:53;;;;;;;50.08;19.02;;;2.40;99.90;;;;;;5058225;28;20389;-59
2021/01/03 02:49:19;;;;;;;41.47;14.97;;;2.50;99.90;;;;;;5054249;28;20020;-61
2021/01/03 02:51:45;;;;;;;48.25;19.90;;;2.60;99.90;;;;;;5058371;28;20627;-59
2021/01/03 02:54:10;;;;;;;44.30;18.63;;;2.60;99.90;;;;;;5047209;28;20057;-59
2021/01/03 02:56:36;;;;;;;46.53;18.38;;;2.70;99.90;;;;;;5043124;28;20028;-59
2021/01/03 02:59:03;;;;;;;46.13;19.88;;;2.80;99.90;;;;;;5042257;28;20120;-59
2021/01/03 03:01:28;;;;;;;43.60;18.98;;;2.70;99.90;;;;;;5040555;28;20029;-59
2021/01/03 03:03:54;;;;;;;42.67;19.40;;;2.70;99.90;;;;;;5057061;28;20387;-59
2021/01/03 03:06:19;;;;;;;43.75;17.92;;;2.70;99.90;;;;;;5052275;28;20464;-59
2021/01/03 03:08:45;;;;;;;42.58;17.85;;;2.80;99.90;;;;;;5061157;28;20029;-59
2021/01/03 03:11:11;;;;;;;46.65;18.05;;;2.80;99.90;;;;;;5056643;28;20048;-59
2021/01/03 03:13:36;;;;;;;43.47;17.88;;;2.70;99.90;;;;;;5059862;28;20032;-59
2021/01/03 03:16:02;;;;;;;43.70;17.30;;;2.80;99.90;;;;;;5059855;28;20558;-57
2021/01/03 03:18:28;;;;;;;42.60;18.63;;;2.80;99.90;;;;;;5056970;28;20025;-59
2021/01/03 03:20:53;;;;;;;40.42;16.27;;;2.90;99.90;;;;;;5059166;28;20480;-59
2021/01/03 03:23:19;;;;;;;43.25;18.15;;;2.90;99.90;;;;;;5047409;28;20718;-59
2021/01/03 03:25:45;;;;;;;43.03;16.23;;;2.70;99.90;;;;;;5039914;28;20078;-59
2021/01/03 03:28:11;;;;;;;39.25;15.93;;;2.80;99.90;;;;;;5054144;28;20044;-59
2021/01/03 03:30:36;;;;;;;38.00;16.23;;;2.80;99.90;;;;;;5042023;28;20076;-59
2021/01/03 03:33:02;;;;;;;35.35;15.85;;;2.80;99.90;;;;;;5051910;28;20042;-59
2021/01/03 03:35:30;;;;;;;38.83;16.50;;;2.80;99.90;;;;;;5050884;28;20045;-59
2021/01/03 03:37:57;;;;;;;41.55;16.65;;;2.80;99.90;;;;;;5059511;28;20031;-59
2021/01/03 03:40:23;;;;;;;40.13;15.75;;;2.80;99.90;;;;;;5045357;28;20028;-59
2021/01/03 03:42:49;;;;;;;36.97;15.75;;;2.70;99.90;;;;;;5055571;28;20029;-59
2021/01/03 03:45:16;;;;;;;39.53;16.98;;;2.70;99.90;;;;;;5053449;28;20384;-59
2021/01/03 03:47:42;;;;;;;36.53;15.00;;;2.70;99.90;;;;;;5064501;28;20064;-59
2021/01/03 03:50:12;;;;;;;37.03;15.60;;;2.70;99.90;;;;;;5045282;28;20099;-59
2021/01/03 03:52:37;;;;;;;37.58;15.82;;;2.70;99.90;;;;;;5056559;28;20032;-59
2021/01/03 03:55:04;;;;;;;37.97;15.55;;;2.60;99.90;;;;;;5063812;28;20053;-59
2021/01/03 03:57:29;;;;;;;34.17;14.75;;;2.70;99.90;;;;;;5056741;28;20029;-59
2021/01/03 03:59:55;;;;;;;38.85;17.13;;;2.80;99.90;;;;;;5042718;28;20024;-59
2021/01/03 04:02:21;;;;;;;38.70;16.65;;;2.70;99.90;;;;;;5050737;28;20032;-59
2021/01/03 04:04:46;;;;;;;37.60;15.35;;;2.70;99.90;;;;;;5045120;28;20025;-59
2021/01/03 04:07:12;;;;;;;41.60;16.80;;;2.80;99.90;;;;;;5055794;28;20024;-59
2021/01/03 04:09:38;;;;;;;39.63;16.58;;;2.70;99.90;;;;;;5051861;28;20541;-59
2021/01/03 04:12:04;;;;;;;37.28;16.85;;;2.60;99.90;;;;;;5058086;28;20104;-59
2021/01/03 04:14:29;;;;;;;39.60;16.33;;;2.70;99.90;;;;;;5052475;28;20392;-59
2021/01/03 04:17:00;;;;;;;45.45;17.73;;;2.80;99.90;;;;;;5058419;28;20024;-59
2021/01/03 04:19:27;;;;;;;42.42;16.63;;;3.00;99.90;;;;;;5070982;28;20070;-59
2021/01/03 04:21:58;;;;;;;46.38;17.95;;;2.90;99.90;;;;;;5053508;28;20106;-59
2021/01/03 04:24:25;;;;;;;37.45;17.45;;;2.80;99.90;;;;;;5055269;28;20488;-60
2021/01/03 04:26:53;;;;;;;44.95;18.45;;;2.70;99.90;;;;;;5058050;28;20028;-59
2021/01/03 04:29:20;;;;;;;42.42;16.75;;;2.70;99.90;;;;;;5052047;28;20085;-59
2021/01/03 04:31:46;;;;;;;41.05;16.90;;;2.70;99.90;;;;;;5053774;28;20032;-58
2021/01/03 04:34:12;;;;;;;45.53;18.35;;;2.80;99.90;;;;;;5053388;28;20040;-60
2021/01/03 04:36:37;;;;;;;39.53;17.17;;;2.70;99.90;;;;;;5052483;28;20059;-60
2021/01/03 04:39:04;;;;;;;46.83;18.90;;;2.90;99.90;;;;;;5055373;28;20029;-61
2021/01/03 04:41:40;;;;;;;42.60;16.55;;;2.80;99.90;;;;;;5047089;28;20532;-61
2021/01/03 04:44:18;;;;;;;42.38;17.48;;;2.90;99.90;;;;;;5052415;28;20508;-60
2021/01/03 04:46:44;;;;;;;41.85;17.40;;;2.80;99.90;;;;;;5039675;28;20068;-61
2021/01/03 04:49:21;;;;;;;43.42;17.95;;;2.70;99.90;;;;;;5048717;28;20484;-60
2021/01/03 04:51:58;;;;;;;39.90;16.27;;;2.80;99.90;;;;;;5042675;28;20633;-60
2021/01/03 04:54:25;;;;;;;41.75;16.23;;;2.80;99.90;;;;;;5044616;28;20521;-61
2021/01/03 04:56:55;;;;;;;42.08;16.77;;;2.80;99.90;;;;;;5037367;28;20100;-60
2021/01/03 04:59:39;;;;;;;39.78;17.80;;;2.80;99.90;;;;;;5053856;28;20522;-61
2021/01/03 05:02:07;;;;;;;39.45;16.13;;;2.80;99.90;;;;;;5049711;28;20040;-58
2021/01/03 05:05:07;;;;;;;42.72;16.90;;;2.90;99.90;;;;;;5043053;28;20060;-61
2021/01/03 05:07:38;;;;;;;38.08;15.77;;;2.90;99.90;;;;;;5029867;28;20067;-60
2021/01/03 05:10:14;;;;;;;41.50;16.48;;;2.90;99.90;;;;;;5050229;28;20111;-61
2021/01/03 05:13:09;;;;;;;36.28;16.23;;;2.90;99.90;;;;;;5048557;28;20025;-59
2021/01/03 05:15:36;;;;;;;35.25;14.65;;;2.90;99.90;;;;;;5059435;28;20028;-61
2021/01/03 05:18:04;;;;;;;38.20;15.57;;;2.80;99.90;;;;;;5037686;28;20485;-61
2021/01/03 05:20:30;;;;;;;35.25;14.75;;;2.80;99.90;;;;;;5046853;28;20484;-60
2021/01/03 05:23:19;;;;;;;38.88;14.68;;;2.80;99.90;;;;;;5048043;28;20117;-61
2021/01/03 05:25:46;;;;;;;34.38;14.55;;;2.90;99.90;;;;;;5048464;28;20029;-61
2021/01/03 05:28:25;;;;;;;24.42;10.07;;;2.80;99.90;;;;;;5045918;28;20038;-61
2021/01/03 05:30:51;;;;;;;34.30;14.98;;;2.90;99.90;;;;;;5030270;28;20045;-61
2021/01/03 05:33:27;;;;;;;32.13;11.98;;;3.00;99.90;;;;;;5043956;28;20464;-61
2021/01/03 05:35:54;;;;;;;29.02;13.07;;;3.00;99.90;;;;;;5042394;28;20037;-61
2021/01/03 05:38:41;;;;;;;22.35;9.05;;;2.90;99.90;;;;;;5051692;28;20034;-60
2021/01/03 05:41:16;;;;;;;26.25;11.85;;;3.10;99.90;;;;;;5042178;28;20140;-61
2021/01/03 05:43:42;;;;;;;24.20;11.20;;;3.00;99.90;;;;;;5048506;28;20783;-61
2021/01/03 05:46:30;;;;;;;28.65;12.10;;;3.00;99.90;;;;;;5050685;28;20077;-60
2021/01/03 05:49:04;;;;;;;23.63;10.73;;;3.00;99.90;;;;;;5061760;28;20327;-60
2021/01/03 05:51:32;;;;;;;25.45;10.82;;;2.90;99.90;;;;;;5051406;28;20569;-60
2021/01/03 05:54:12;;;;;;;26.05;10.93;;;2.90;99.90;;;;;;5040932;28;20062;-61
2021/01/03 05:56:38;;;;;;;21.45;9.15;;;2.90;99.90;;;;;;5037106;28;20025;-59
2021/01/03 05:59:04;;;;;;;24.08;9.40;;;2.90;99.90;;;;;;5046487;28;20086;-60
2021/01/03 06:01:33;;;;;;;23.38;9.50;;;3.10;99.90;;;;;;5042808;28;20033;-61
2021/01/03 06:04:09;;;;;;;21.40;8.20;;;3.00;99.90;;;;;;5048618;28;20090;-61
2021/01/03 06:06:49;;;;;;;18.52;7.93;;;3.00;99.90;;;;;;5042858;28;20025;-60
2021/01/03 06:09:42;;;;;;;23.17;9.05;;;3.00;99.90;;;;;;5046776;28;20032;-60
2021/01/03 06:12:21;;;;;;;19.35;8.10;;;3.00;99.90;;;;;;5045959;28;20033;-60
2021/01/03 06:14:52;;;;;;;21.58;9.07;;;3.10;99.90;;;;;;5042683;28;20087;-60
2021/01/03 06:17:19;;;;;;;17.50;7.60;;;3.00;99.90;;;;;;5045436;28;20025;-61
2021/01/03 06:19:52;;;;;;;19.08;8.88;;;3.10;99.90;;;;;;5044165;28;20063;-61
2021/01/03 06:22:47;;;;;;;21.23;9.15;;;3.10;99.90;;;;;;5047223;28;20487;-61
2021/01/03 06:25:44;;;;;;;18.58;8.70;;;2.90;99.90;;;;;;5034379;28;20033;-61
2021/01/03 06:28:11;;;;;;;19.75;8.60;;;3.00;99.90;;;;;;5043701;28;20029;-60
2021/01/03 06:30:42;;;;;;;17.58;8.25;;;3.00;99.90;;;;;;5048043;28;20495;-61
2021/01/03 06:33:23;;;;;;;16.95;8.25;;;3.10;99.90;;;;;;5047550;28;20025;-61
2021/01/03 06:35:56;;;;;;;18.58;8.05;;;3.00;99.90;;;;;;5047708;28;20025;-60
2021/01/03 06:38:28;;;;;;;18.75;8.07;;;3.00;99.90;;;;;;5045475;28;20021;-60
2021/01/03 06:41:24;;;;;;;24.45;9.73;;;3.00;99.90;;;;;;5045480;28;20054;-60
2021/01/03 06:44:15;;;;;;;17.95;8.15;;;3.00;99.90;;;;;;5045806;28;20542;-61
2021/01/03 06:47:06;;;;;;;;;;;3.00;99.90;;;;;;5033743;28;20307;-59
2021/01/03 06:49:57;;;;;;;19.40;8.85;;;3.00;99.90;;;;;;5024880;28;19955;-60
2021/01/03 06:52:54;;;;;;;11.68;4.97;;;3.10;99.90;;;;;;5043472;28;20428;-59
2021/01/03 06:55:51;;;;;;;21.13;8.52;;;3.10;99.90;;;;;;5041225;28;20124;-60
2021/01/03 06:58:52;;;;;;;23.27;8.38;;;3.10;99.90;;;;;;5048577;28;20060;-60
2021/01/03 07:01:26;;;;;;;19.10;8.23;;;3.00;99.90;;;;;;5049285;28;20404;-59
2021/01/03 07:03:56;;;;;;;20.10;9.43;;;3.10;99.90;;;;;;5053521;28;20021;-59
2021/01/03 07:06:29;;;;;;;19.13;7.63;;;3.00;99.90;;;;;;5048091;28;20044;-60
2021/01/03 07:08:54;;;;;;;17.60;6.72;;;3.00;99.90;;;;;;5048002;28;20023;-59
2021/01/03 07:11:39;;;;;;;18.02;7.90;;;3.00;99.90;;;;;;5040878;28;20021;-61
2021/01/03 07:14:11;;;;;;;19.40;7.93;;;3.10;99.90;;;;;;5038633;28;20041;-61
2021/01/03 07:16:56;;;;;;;18.58;8.23;;;2.90;99.90;;;;;;5046548;28;20056;-60
2021/01/03 07:19:37;;;;;;;20.80;8.23;;;2.90;99.90;;;;;;5039494;28;20048;-60
2021/01/03 07:22:12;;;;;;;22.83;7.68;;;3.00;99.90;;;;;;5046739;28;20063;-61
2021/01/03 07:24:44;;;;;;;19.60;8.32;;;3.00;99.90;;;;;;5042945;28;20028;-61
2021/01/03 07:27:12;;;;;;;16.52;6.85;;;3.00;99.90;;;;;;5045118;28;20083;-61
2021/01/03 07:30:01;;;;;;;18.85;8.18;;;3.00;99.90;;;;;;5045718;28;20032;-60
2021/01/03 07:32:33;;;;;;;17.00;8.30;;;3.00;99.90;;;;;;5036735;28;20094;-59
2021/01/03 07:35:02;;;;;;;15.63;5.97;;;3.00;99.90;;;;;;5045561;28;20384;-61
2021/01/03 07:37:31;;;;;;;18.77;8.15;;;3.10;99.90;;;;;;5036223;28;20070;-61
2021/01/03 07:40:16;;;;;;;16.98;7.90;;;3.20;99.90;;;;;;5047769;28;20144;-61
2021/01/03 07:42:42;;;;;;;15.52;6.80;;;3.00;99.90;;;;;;5056188;28;20020;-61
2021/01/03 07:45:13;;;;;;;18.90;8.73;;;3.10;99.90;;;;;;5037589;28;20037;-61
2021/01/03 07:47:48;;;;;;;19.23;8.13;;;3.10;99.90;;;;;;5034044;28;20390;-59
2021/01/03 07:50:23;;;;;;;18.35;8.02;;;3.10;99.90;;;;;;5048225;28;20075;-60
2021/01/03 07:52:52;;;;;;;15.18;6.30;;;3.00;99.90;;;;;;5044798;28;20025;-60
2021/01/03 07:55:30;;;;;;;19.55;8.02;;;3.20;99.90;;;;;;5042317;28;20091;-60
2021/01/03 07:57:58;;;;;;;15.65;7.70;;;3.10;99.90;;;;;;5040611;28;20029;-60
2021/01/03 08:00:26;;;;;;;16.13;7.10;;;3.10;99.90;;;;;;5050873;28;20033;-59
2021/01/03 08:02:56;;;;;;;16.85;7.88;;;3.10;99.90;;;;;;5035672;28;20063;-59
2021/01/03 08:05:24;;;;;;;16.75;7.50;;;3.10;99.90;;;;;;5048116;28;20037;-59
2021/01/03 08:07:50;;;;;;;17.27;6.90;;;3.20;99.90;;;;;;5040259;28;20529;-61
2021/01/03 08:10:17;;;;;;;18.17;8.23;;;3.20;99.90;;;;;;5050702;28;20111;-60
2021/01/03 08:12:53;;;;;;;15.00;5.82;;;3.20;99.90;;;;;;5049961;28;20117;-60
2021/01/03 08:15:28;;;;;;;15.45;7.30;;;3.20;99.90;;;;;;5039790;28;20033;-60
2021/01/03 08:18:19;;;;;;;18.30;8.43;;;3.20;99.90;;;;;;5051694;28;20032;-60
2021/01/03 08:20:45;;;;;;;20.33;8.40;;;3.20;99.90;;;;;;5036627;28;20354;-60
2021/01/03 08:23:16;;;;;;;17.08;7.82;;;3.20;99.90;;;;;;5048116;28;20087;-60
2021/01/03 08:25:42;;;;;;;17.52;8.50;;;3.20;99.90;;;;;;5039931;28;20013;-60
2021/01/03 08:28:18;;;;;;;13.63;6.20;;;3.30;99.90;;;;;;5061696;28;20101;-60
2021/01/03 08:30:45;;;;;;;16.52;8.45;;;3.20;99.90;;;;;;5048545;28;20017;-60
2021/01/03 08:33:31;;;;;;;11.38;5.68;;;3.20;99.90;;;;;;5050027;28;20044;-61
2021/01/03 08:35:57;;;;;;;13.35;5.93;;;3.30;99.90;;;;;;5034861;28;20029;-60
2021/01/03 08:38:27;;;;;;;16.05;7.38;;;3.40;99.90;;;;;;5045277;28;20354;-60
2021/01/03 08:41:00;;;;;;;16.13;7.05;;;3.20;99.90;;;;;;5047350;28;20376;-59
2021/01/03 08:43:30;;;;;;;13.77;6.28;;;3.20;99.90;;;;;;5048881;28;20032;-60
2021/01/03 08:46:00;;;;;;;17.83;7.80;;;3.30;99.90;;;;;;5058376;28;20131;-61
2021/01/03 08:48:27;;;;;;;15.70;7.00;;;3.40;99.90;;;;;;5038803;28;20040;-60
2021/01/03 08:51:12;;;;;;;14.38;6.63;;;3.30;99.90;;;;;;5035935;28;20044;-60
2021/01/03 08:53:38;;;;;;;14.63;7.25;;;3.20;99.90;;;;;;5041904;28;20404;-60
2021/01/03 08:56:20;;;;;;;14.23;6.75;;;3.20;99.90;;;;;;5049043;28;20048;-60
2021/01/03 08:58:45;;;;;;;14.93;6.97;;;3.30;99.90;;;;;;5045821;28;20499;-59
2021/01/03 09:01:31;;;;;;;13.23;6.20;;;3.40;99.90;;;;;;5043907;28;20037;-59
2021/01/03 09:04:03;;;;;;;12.88;6.28;;;3.40;99.90;;;;;;5030592;28;20042;-59
2021/01/03 09:06:29;;;;;;;15.98;6.50;;;3.30;99.90;;;;;;5030891;28;20025;-60
2021/01/03 09:08:56;;;;;;;13.05;6.00;;;3.20;99.90;;;;;;5037328;28;20032;-60
2021/01/03 09:11:30;;;;;;;13.05;6.07;;;3.40;99.90;;;;;;5037739;28;20040;-60
2021/01/03 09:14:16;;;;;;;12.82;5.78;;;3.40;99.90;;;;;;5033345;28;20033;-59
2021/01/03 09:17:10;;;;;;;12.90;5.88;;;3.30;99.90;;;;;;5034896;28;20052;-59
2021/01/03 09:19:55;;;;;;;12.98;5.40;;;3.30;99.90;;;;;;5020212;28;20087;-60
2021/01/03 09:22:42;;;;;;;13.10;5.85;;;3.30;99.90;;;;;;5025835;28;20060;-60
2021/01/03 09:25:17;;;;;;;13.80;6.57;;;3.40;99.90;;;;;;5017232;28;20065;-60
2021/01/03 09:27:43;;;;;;;13.80;5.80;;;3.30;99.90;;;;;;5011729;28;20409;-60
2021/01/03 09:30:17;;;;;;;16.05;5.75;;;3.40;99.90;;;;;;5022776;28;20044;-59
2021/01/03 09:32:45;;;;;;;14.05;6.63;;;3.40;99.90;;;;;;5019339;28;20048;-59
2021/01/03 09:35:35;;;;;;;12.40;5.25;;;3.40;99.90;;;;;;5014406;28;20045;-60
2021/01/03 09:38:32;;;;;;;12.93;6.22;;;3.50;99.90;;;;;;5013427;28;20108;-59
2021/01/03 09:41:32;;;;;;;15.10;6.68;;;3.40;99.90;;;;;;5012843;28;20033;-59
2021/01/03 09:44:06;;;;;;;13.23;5.60;;;3.40;99.90;;;;;;5014609;28;20041;-58
2021/01/03 09:46:40;;;;;;;13.80;4.82;;;3.40;99.90;;;;;;5012687;28;20045;-60
2021/01/03 09:49:24;;;;;;;15.70;6.28;;;3.50;99.90;;;;;;5015700;28;20037;-60
2021/01/03 09:52:01;;;;;;;12.00;4.82;;;3.50;99.90;;;;;;5009092;28;20117;-60
2021/01/03 09:54:37;;;;;;;10.95;4.57;;;3.50;99.90;;;;;;5012275;28;20497;-60
2021/01/03 09:57:03;;;;;;;13.32;5.80;;;3.60;99.90;;;;;;5031194;28;20037;-60
2021/01/03 09:59:29;;;;;;;13.57;6.07;;;3.60;99.90;;;;;;5033442;28;20096;-58
2021/01/03 10:01:54;;;;;;;13.30;5.70;;;3.60;99.90;;;;;;5029681;28;20112;-60
2021/01/03 10:04:40;;;;;;;15.85;7.28;;;3.60;99.90;;;;;;5032697;28;20021;-59
2021/01/03 10:07:18;;;;;;;14.43;6.70;;;3.50;99.90;;;;;;5035559;28;20029;-60
2021/01/03 10:09:58;;;;;;;12.23;5.70;;;3.60;99.90;;;;;;5036254;28;20044;-60
2021/01/03 10:12:38;;;;;;;11.90;5.10;;;3.90;99.90;;;;;;5045621;28;20036;-60
2021/01/03 10:15:11;;;;;;;12.07;5.47;;;3.90;99.90;;;;;;5047420;28;20052;-59
2021/01/03 10:17:41;;;;;;;12.35;5.63;;;3.90;99.90;;;;;;5046722;28;20040;-60
2021/01/03 10:20:44;;;;;;;11.80;5.35;;;3.80;99.90;;;;;;5043693;28;20032;-59
2021/01/03 10:23:33;;;;;;;17.52;7.40;;;3.50;99.90;;;;;;5041618;28;20110;-58
2021/01/03 10:25:58;;;;;;;12.85;5.60;;;3.60;99.90;;;;;;5041331;28;20045;-59
2021/01/03 10:28:24;;;;;;;13.25;6.13;;;3.60;99.90;;;;;;5032507;28;20096;-59
2021/01/03 10:30:50;;;;;;;11.73;5.75;;;3.60;99.90;;;;;;5048629;28;20078;-59
2021/01/03 10:33:16;;;;;;;11.73;5.38;;;3.60;99.90;;;;;;5046957;28;20246;-59
2021/01/03 10:35:41;;;;;;;11.80;5.25;;;3.60;99.90;;;;;;5037717;28;20106;-60
2021/01/03 10:38:08;;;;;;;12.27;5.50;;;3.70;99.90;;;;;;5048418;28;20484;-59
2021/01/03 10:40:34;;;;;;;12.55;5.25;;;3.60;99.90;;;;;;5030040;28;20104;-59
2021/01/03 10:43:00;;;;;;;9.70;4.65;;;3.70;99.90;;;;;;5029095;28;20021;-59
2021/01/03 10:45:26;;;;;;;12.00;5.85;;;3.70;99.90;;;;;;5032926;28;20051;-59
2021/01/03 10:47:52;;;;;;;10.63;3.50;;;3.60;99.90;;;;;;5035179;28;20049;-59
2021/01/03 10:50:20;;;;;;;12.43;5.50;;;3.80;99.90;;;;;;5033842;28;20034;-59
2021/01/03 10:52:46;;;;;;;12.63;5.53;;;3.80;99.90;;;;;;5036733;28;20060;-58
2021/01/03 10:55:13;;;;;;;18.60;8.23;;;3.70;99.90;;;;;;5044171;28;20084;-59
2021/01/03 10:57:39;;;;;;;10.70;4.10;;;3.80;99.90;;;;;;5026739;28;20033;-58
2021/01/03 11:00:12;;;;;;;15.60;7.03;;;3.90;99.90;;;;;;5042011;28;20024;-59
2021/01/03 11:02:37;;;;;;;13.48;5.93;;;4.00;99.90;;;;;;5042891;28;20029;-59
2021/01/03 11:05:05;;;;;;;13.25;5.32;;;4.00;99.90;;;;;;5039343;28;20550;-58
2021/01/03 11:07:30;;;;;;;11.75;5.07;;;3.90;99.90;;;;;;5037714;28;20034;-59
2021/01/03 11:09:56;;;;;;;11.15;4.78;;;3.90;99.90;;;;;;5025331;28;20025;-59
2021/01/03 11:12:22;;;;;;;12.07;5.45;;;3.90;99.90;;;;;;5036413;28;20647;-59
2021/01/03 11:14:48;;;;;;;13.63;5.70;;;3.80;99.90;;;;;;5036552;28;20044;-59
2021/01/03 11:17:15;;;;;;;8.50;3.70;;;3.80;99.90;;;;;;5032295;28;20029;-59
2021/01/03 11:19:42;;;;;;;9.55;4.22;;;3.90;99.90;;;;;;5041126;28;20036;-60
2021/01/03 11:22:10;;;;;;;12.68;5.40;;;3.90;99.90;;;;;;5055981;28;20057;-60
2021/01/03 11:24:38;;;;;;;13.23;5.25;;;3.90;99.90;;;;;;5039342;28;20037;-59
2021/01/03 11:27:07;;;;;;;11.73;4.50;;;4.10;99.90;;;;;;5039985;28;20074;-60
2021/01/03 11:29:33;;;;;;;7.95;3.63;;;4.10;99.90;;;;;;5050050;28;20120;-59
2021/01/03 11:32:00;;;;;;;11.27;5.18;;;4.10;99.90;;;;;;5042478;28;20559;-59
2021/01/03 11:34:31;;;;;;;12.40;5.60;;;4.30;99.90;;;;;;5046811;28;20068;-59
2021/01/03 11:37:06;;;;;;;10.68;4.60;;;4.20;99.90;;;;;;5049637;28;20039;-60
2021/01/03 11:39:35;;;;;;;11.65;4.50;;;4.20;99.90;;;;;;5032347;28;20045;-61
2021/01/03 11:42:04;;;;;;;13.02;5.60;;;4.20;99.90;;;;;;5051365;28;20029;-59
2021/01/03 11:44:30;;;;;;;10.82;5.18;;;4.20;99.90;;;;;;5057522;28;20226;-59
2021/01/03 11:47:01;;;;;;;13.10;6.07;;;4.20;99.90;;;;;;5058866;28;20410;-59
2021/01/03 11:49:27;;;;;;;12.68;6.05;;;4.00;99.90;;;;;;5041056;28;20029;-59
2021/01/03 11:51:53;;;;;;;13.27;6.00;;;4.10;99.90;;;;;;5056729;28;20587;-59
2021/01/03 11:54:19;;;;;;;12.68;4.95;;;4.20;99.90;;;;;;5052414;28;20880;-59
2021/01/03 11:56:45;;;;;;;10.05;3.95;;;4.10;99.90;;;;;;5042077;28;20033;-59
2021/01/03 11:59:11;;;;;;;14.45;5.65;;;4.10;99.90;;;;;;5041240;28;20086;-59
2021/01/03 12:01:37;;;;;;;12.90;5.30;;;4.10;99.90;;;;;;5043021;28;20033;-59
2021/01/03 12:04:02;;;;;;;12.15;5.18;;;4.20;99.90;;;;;;5048695;28;20511;-58
2021/01/03 12:06:28;;;;;;;15.15;6.70;;;4.40;99.90;;;;;;5051123;28;20031;-60
2021/01/03 12:08:54;;;;;;;13.57;5.68;;;4.10;99.90;;;;;;5060302;28;20042;-59
2021/01/03 12:11:22;;;;;;;14.18;7.18;;;4.30;99.90;;;;;;5047981;28;20072;-59
2021/01/03 12:13:56;;;;;;;12.35;5.13;;;4.20;99.90;;;;;;5052859;28;20099;-59
2021/01/03 12:16:26;;;;;;;15.40;5.90;;;4.00;99.90;;;;;;5048512;28;20031;-59
2021/01/03 12:18:53;;;;;;;15.18;6.65;;;3.90;99.90;;;;;;5056706;28;20040;-59
2021/01/03 12:21:24;;;;;;;15.48;6.55;;;4.00;99.90;;;;;;5043249;28;20492;-59
2021/01/03 12:23:50;;;;;;;17.50;6.10;;;4.10;99.90;;;;;;5042275;28;20134;-59
2021/01/03 12:26:18;;;;;;;14.68;6.55;;;4.00;99.90;;;;;;5043755;28;20025;-61
2021/01/03 12:28:44;;;;;;;14.70;6.13;;;3.90;99.90;;;;;;5040095;28;20158;-60
2021/01/03 12:31:09;;;;;;;14.15;6.88;;;3.90;99.90;;;;;;5046331;28;20030;-60
2021/01/03 12:33:35;;;;;;;12.07;5.22;;;3.90;99.90;;;;;;5059787;28;20032;-60
2021/01/03 12:36:01;;;;;;;13.77;5.78;;;4.00;99.90;;;;;;5044031;28;20048;-60
2021/01/03 12:38:27;;;;;;;14.50;6.75;;;4.20;99.90;;;;;;5043708;28;20029;-60
2021/01/03 12:40:52;;;;;;;17.88;7.80;;;4.00;99.90;;;;;;5044297;28;20100;-60
2021/01/03 12:43:18;;;;;;;18.25;8.27;;;3.90;99.90;;;;;;5048428;28;20036;-60
2021/01/03 12:45:44;;;;;;;17.48;6.18;;;3.90;99.90;;;;;;5041341;28;20497;-60
2021/01/03 12:48:10;;;;;;;18.77;6.95;;;3.90;99.90;;;;;;5035154;28;20033;-60
2021/01/03 12:50:36;;;;;;;16.02;6.93;;;3.90;99.90;;;;;;5031104;28;20040;-60
2021/01/03 12:53:02;;;;;;;18.92;7.63;;;4.00;99.90;;;;;;5028701;28;20076;-60
2021/01/03 12:55:27;;;;;;;19.27;8.95;;;3.80;99.90;;;;;;5033564;28;20083;-60
2021/01/03 12:57:53;;;;;;;21.60;8.65;;;3.70;99.90;;;;;;5031355;28;20025;-60
2021/01/03 13:00:19;;;;;;;15.52;7.22;;;3.80;99.90;;;;;;5057616;28;20033;-60
2021/01/03 13:02:44;;;;;;;21.50;9.38;;;3.80;99.90;;;;;;5047006;28;20427;-60
2021/01/03 13:05:11;;;;;;;18.73;8.55;;;3.70;99.90;;;;;;5045761;28;20063;-60